Time;durP1;ratioP1;P1;durP2;ratioP2;P2;SDS_P1;SDS_P2;PMS_P1;PMS_P2;Temp;Humidity;BMP_temperature;BMP_pressure;BME280_temperature;BME280_humidity;BME280_pressure;Samples;Min_cycle;Max_cycle;Signal;HPM_P1;HPM_P2
2023/06/16 00:02:17;;;;;;;4.35;3.63;;;;;;;;;;5138646;27;20201;-63
2023/06/16 00:04:44;;;;;;;4.22;3.90;;;;;;;;;;5138730;27;20669;-63
2023/06/16 00:07:12;;;;;;;3.90;3.60;;;;;;;;;;5138014;27;20209;-63
2023/06/16 00:09:39;;;;;;;4.03;3.72;;;;;;;;;;5138809;27;20202;-63
2023/06/16 00:12:07;;;;;;;4.15;3.85;;;;;;;;;;5138295;27;20202;-63
2023/06/16 00:14:34;;;;;;;3.70;3.40;;;;;;;;;;5138703;28;20198;-63
2023/06/16 00:17:03;;;;;;;3.88;3.42;;;;;;;;;;5138550;27;20240;-63
2023/06/16 00:19:32;;;;;;;4.07;3.78;;;;;;;;;;5138518;28;20217;-63
2023/06/16 00:22:00;;;;;;;3.90;3.60;;;;;;;;;;5138405;28;20209;-63
2023/06/16 00:24:28;;;;;;;4.40;4.00;;;;;;;;;;5137928;27;20232;-63
2023/06/16 00:26:56;;;;;;;4.35;3.83;;;;;;;;;;5138254;27;20209;-63
2023/06/16 00:29:23;;;;;;;4.30;4.00;;;;;;;;;;5138753;27;20210;-63
2023/06/16 00:31:51;;;;;;;4.38;3.95;;;;;;;;;;5138286;27;20213;-63
2023/06/16 00:34:18;;;;;;;4.32;3.92;;;;;;;;;;5138395;28;20205;-63
2023/06/16 00:36:46;;;;;;;4.18;3.88;;;;;;;;;;5138168;27;20201;-63
2023/06/16 00:39:14;;;;;;;4.00;3.70;;;;;;;;;;5138163;27;20210;-63
2023/06/16 00:41:41;;;;;;;4.10;3.80;;;;;;;;;;5137959;27;20823;-63
2023/06/16 00:44:09;;;;;;;4.10;3.80;;;;;;;;;;5137879;27;20229;-63
2023/06/16 00:46:37;;;;;;;3.97;3.67;;;;;;;;;;5137721;28;20630;-63
2023/06/16 00:49:05;;;;;;;4.00;3.60;;;;;;;;;;5138532;27;20279;-63
2023/06/16 00:51:33;;;;;;;3.95;3.65;;;;;;;;;;5137987;28;20582;-63
2023/06/16 00:54:02;;;;;;;3.95;3.65;;;;;;;;;;5138055;27;20263;-63
2023/06/16 00:56:29;;;;;;;4.20;3.80;;;;;;;;;;5137751;27;20225;-63
2023/06/16 00:58:58;;;;;;;3.90;3.60;;;;;;;;;;5138166;27;20229;-63
2023/06/16 01:01:28;;;;;;;3.90;3.60;;;;;;;;;;5138111;28;20213;-63
2023/06/16 01:03:55;;;;;;;3.90;3.60;;;;;;;;;;5137494;28;20230;-63
2023/06/16 01:06:30;;;;;;;4.18;3.88;;;;;;;;;;5137990;27;20490;-63
2023/06/16 01:09:05;;;;;;;4.10;3.80;;;;;;;;;;5138095;28;20206;-63
2023/06/16 01:11:38;;;;;;;3.58;3.35;;;;;;;;;;5137894;27;20274;-63
2023/06/16 01:14:09;;;;;;;4.10;3.80;;;;;;;;;;5137842;27;20211;-63
2023/06/16 01:16:37;;;;;;;4.15;3.55;;;;;;;;;;5137887;27;20210;-63
2023/06/16 01:19:09;;;;;;;4.00;3.70;;;;;;;;;;5140057;27;20201;-63
2023/06/16 01:21:43;;;;;;;4.00;3.70;;;;;;;;;;5141495;27;20596;-63
2023/06/16 01:24:14;;;;;;;4.20;3.90;;;;;;;;;;5141645;27;20312;-63
2023/06/16 01:26:45;;;;;;;4.05;3.75;;;;;;;;;;5141355;27;20210;-63
2023/06/16 01:29:13;;;;;;;5.28;4.00;;;;;;;;;;5141517;27;20203;-63
2023/06/16 01:31:41;;;;;;;4.20;3.80;;;;;;;;;;5141411;27;20202;-63
2023/06/16 01:34:09;;;;;;;4.22;3.90;;;;;;;;;;5141630;27;20581;-63
2023/06/16 01:36:38;;;;;;;3.88;3.58;;;;;;;;;;5141290;27;20202;-63
2023/06/16 01:39:06;;;;;;;3.80;3.50;;;;;;;;;;5141044;27;20206;-63
2023/06/16 01:41:37;;;;;;;4.50;4.13;;;;;;;;;;5141355;27;20212;-63
2023/06/16 01:44:06;;;;;;;4.15;3.75;;;;;;;;;;5141040;27;20232;-63
2023/06/16 01:46:33;;;;;;;4.15;3.85;;;;;;;;;;5140663;27;20242;-63
2023/06/16 01:49:01;;;;;;;4.00;3.70;;;;;;;;;;5141113;27;20252;-63
2023/06/16 01:51:29;;;;;;;4.22;3.92;;;;;;;;;;5140621;27;20202;-63
2023/06/16 01:53:56;;;;;;;4.25;3.95;;;;;;;;;;5140588;27;20198;-63
2023/06/16 01:56:23;;;;;;;4.13;3.83;;;;;;;;;;5140824;27;20202;-63
2023/06/16 01:58:52;;;;;;;4.07;3.72;;;;;;;;;;5140523;27;20499;-63
2023/06/16 02:01:21;;;;;;;4.20;3.80;;;;;;;;;;5140892;27;20209;-63
2023/06/16 02:03:51;;;;;;;3.83;3.53;;;;;;;;;;5140371;27;20267;-63
2023/06/16 02:06:20;;;;;;;4.10;3.80;;;;;;;;;;5140525;27;20217;-63
2023/06/16 02:08:49;;;;;;;4.15;3.85;;;;;;;;;;5140815;27;20491;-63
2023/06/16 02:11:16;;;;;;;4.07;3.78;;;;;;;;;;5140562;27;20202;-63
2023/06/16 02:13:44;;;;;;;4.10;3.70;;;;;;;;;;5140371;27;20198;-62
2023/06/16 02:16:13;;;;;;;4.25;3.95;;;;;;;;;;5140573;27;20206;-62
2023/06/16 02:18:40;;;;;;;3.70;3.40;;;;;;;;;;5140605;27;20202;-63
2023/06/16 02:21:14;;;;;;;4.22;3.90;;;;;;;;;;5140528;27;20209;-63
2023/06/16 02:23:41;;;;;;;4.30;3.90;;;;;;;;;;5140138;27;20234;-63
2023/06/16 02:26:08;;;;;;;4.70;4.30;;;;;;;;;;5140085;27;20213;-63
2023/06/16 02:28:36;;;;;;;4.30;3.90;;;;;;;;;;5139884;27;20202;-62
2023/06/16 02:31:03;;;;;;;4.20;3.88;;;;;;;;;;5139798;27;20210;-62
2023/06/16 02:33:32;;;;;;;4.63;4.22;;;;;;;;;;5139805;27;20198;-62
2023/06/16 02:35:59;;;;;;;4.10;3.80;;;;;;;;;;5140259;27;20217;-62
2023/06/16 02:38:26;;;;;;;4.43;4.13;;;;;;;;;;5139843;27;20205;-63
2023/06/16 02:40:54;;;;;;;3.88;3.50;;;;;;;;;;5139849;27;20206;-63
2023/06/16 02:43:21;;;;;;;3.95;3.65;;;;;;;;;;5139952;27;20569;-62
2023/06/16 02:45:49;;;;;;;4.13;3.72;;;;;;;;;;5139327;27;20238;-62
2023/06/16 02:48:16;;;;;;;4.13;3.72;;;;;;;;;;5139832;27;20213;-63
2023/06/16 02:50:45;;;;;;;4.50;3.97;;;;;;;;;;5139344;27;20217;-63
2023/06/16 02:53:13;;;;;;;4.20;3.90;;;;;;;;;;5140005;27;20194;-63
2023/06/16 02:55:43;;;;;;;4.20;3.90;;;;;;;;;;5139316;27;20190;-63
2023/06/16 02:58:11;;;;;;;4.10;3.80;;;;;;;;;;5139083;27;20573;-63
2023/06/16 03:00:38;;;;;;;4.18;3.85;;;;;;;;;;5139325;27;20292;-63
2023/06/16 03:03:07;;;;;;;4.10;3.80;;;;;;;;;;5139385;27;20202;-63
2023/06/16 03:05:34;;;;;;;4.47;4.18;;;;;;;;;;5139205;27;20236;-63
2023/06/16 03:08:03;;;;;;;4.20;3.90;;;;;;;;;;5139341;27;20209;-63
2023/06/16 03:10:30;;;;;;;4.50;4.10;;;;;;;;;;5139046;27;20589;-63
2023/06/16 03:12:58;;;;;;;3.88;3.58;;;;;;;;;;5139258;27;20601;-63
2023/06/16 03:15:27;;;;;;;4.10;3.80;;;;;;;;;;5139276;27;20554;-63
2023/06/16 03:17:54;;;;;;;3.70;3.40;;;;;;;;;;5139170;27;20209;-62
2023/06/16 03:20:22;;;;;;;4.35;4.05;;;;;;;;;;5138873;27;20202;-63
2023/06/16 03:22:50;;;;;;;4.30;4.00;;;;;;;;;;5139060;27;20254;-63
2023/06/16 03:25:21;;;;;;;4.03;3.72;;;;;;;;;;5138355;27;20234;-63
2023/06/16 03:27:48;;;;;;;4.57;4.22;;;;;;;;;;5138655;27;20210;-63
2023/06/16 03:30:15;;;;;;;4.50;4.10;;;;;;;;;;5138932;27;20202;-63
2023/06/16 03:32:44;;;;;;;3.92;3.63;;;;;;;;;;5139000;27;20213;-63
2023/06/16 03:35:12;;;;;;;3.80;3.50;;;;;;;;;;5138264;27;20297;-63
2023/06/16 03:37:39;;;;;;;4.32;4.03;;;;;;;;;;5139026;27;20487;-63
2023/06/16 03:40:07;;;;;;;4.32;4.03;;;;;;;;;;5138785;27;20215;-63
2023/06/16 03:42:36;;;;;;;4.13;3.70;;;;;;;;;;5138102;27;20203;-63
2023/06/16 03:45:04;;;;;;;4.00;3.70;;;;;;;;;;5138525;27;20272;-63
2023/06/16 03:47:31;;;;;;;4.50;4.20;;;;;;;;;;5120366;27;20231;-62
2023/06/16 03:50:00;;;;;;;4.53;4.20;;;;;;;;;;5117860;28;20211;-62
2023/06/16 03:52:28;;;;;;;4.15;3.85;;;;;;;;;;5118121;28;20242;-63
2023/06/16 03:54:56;;;;;;;4.20;3.90;;;;;;;;;;5117691;28;20198;-63
2023/06/16 03:57:23;;;;;;;4.15;3.85;;;;;;;;;;5118121;28;20589;-62
2023/06/16 03:59:52;;;;;;;4.05;3.75;;;;;;;;;;5117849;28;20211;-62
2023/06/16 04:02:19;;;;;;;4.20;3.90;;;;;;;;;;5117594;28;20233;-63
2023/06/16 04:04:47;;;;;;;4.30;4.00;;;;;;;;;;5117963;28;20227;-63
2023/06/16 04:07:14;;;;;;;4.68;4.28;;;;;;;;;;5117577;28;20214;-63
2023/06/16 04:09:42;;;;;;;4.75;4.38;;;;;;;;;;5117357;28;20211;-63
2023/06/16 04:12:09;;;;;;;4.22;3.90;;;;;;;;;;5117521;28;20480;-63
2023/06/16 04:14:37;;;;;;;4.93;4.53;;;;;;;;;;5117770;28;20206;-63
2023/06/16 04:17:06;;;;;;;4.57;4.15;;;;;;;;;;5117464;28;20211;-63
2023/06/16 04:19:34;;;;;;;4.60;4.30;;;;;;;;;;5117084;28;20210;-63
2023/06/16 04:22:01;;;;;;;4.35;3.97;;;;;;;;;;5117319;28;20214;-62
2023/06/16 04:24:28;;;;;;;4.60;4.20;;;;;;;;;;5116914;28;20245;-63
2023/06/16 04:26:58;;;;;;;4.82;4.38;;;;;;;;;;5117441;28;20203;-63
2023/06/16 04:29:26;;;;;;;4.90;4.50;;;;;;;;;;5116980;28;20212;-62
2023/06/16 04:31:57;;;;;;;4.65;4.28;;;;;;;;;;5116943;28;20458;-63
2023/06/16 04:34:26;;;;;;;4.50;4.10;;;;;;;;;;5116642;28;20263;-63
2023/06/16 04:36:57;;;;;;;4.68;4.28;;;;;;;;;;5116666;28;20206;-63
2023/06/16 04:39:24;;;;;;;4.68;4.25;;;;;;;;;;5116419;28;20259;-63
2023/06/16 04:41:52;;;;;;;4.95;4.55;;;;;;;;;;5116336;28;20267;-63
2023/06/16 04:44:20;;;;;;;5.43;4.93;;;;;;;;;;5116773;28;20524;-63
2023/06/16 04:46:47;;;;;;;4.97;4.57;;;;;;;;;;5125227;28;20267;-62
2023/06/16 04:49:15;;;;;;;4.45;4.13;;;;;;;;;;5136805;28;20234;-63
2023/06/16 04:51:44;;;;;;;4.55;4.25;;;;;;;;;;5136563;27;20210;-63
2023/06/16 04:54:11;;;;;;;4.68;4.28;;;;;;;;;;5139990;27;20210;-63
2023/06/16 04:56:39;;;;;;;4.93;4.53;;;;;;;;;;5140241;27;20211;-62
2023/06/16 04:59:06;;;;;;;4.90;4.50;;;;;;;;;;5139791;27;20216;-62
2023/06/16 05:01:34;;;;;;;5.90;5.40;;;;;;;;;;5139292;27;20238;-63
2023/06/16 05:04:01;;;;;;;4.93;4.47;;;;;;;;;;5139984;27;20285;-63
2023/06/16 05:06:28;;;;;;;5.03;4.63;;;;;;;;;;5139647;27;20201;-63
2023/06/16 05:08:57;;;;;;;4.75;4.35;;;;;;;;;;5139421;27;20275;-63
2023/06/16 05:11:25;;;;;;;4.82;4.38;;;;;;;;;;5139050;27;20210;-63
2023/06/16 05:13:52;;;;;;;4.88;4.47;;;;;;;;;;5139588;27;20202;-63
2023/06/16 05:16:19;;;;;;;4.93;4.53;;;;;;;;;;5139383;27;20201;-63
2023/06/16 05:18:47;;;;;;;4.65;4.22;;;;;;;;;;5139034;27;20498;-63
2023/06/16 05:21:14;;;;;;;4.72;4.32;;;;;;;;;;5138332;27;20213;-63
2023/06/16 05:23:41;;;;;;;5.45;4.95;;;;;;;;;;5139654;27;20582;-63
2023/06/16 05:26:11;;;;;;;5.28;4.88;;;;;;;;;;5139483;27;20328;-63
2023/06/16 05:28:38;;;;;;;4.68;4.35;;;;;;;;;;5139374;27;20209;-63
2023/06/16 05:31:05;;;;;;;5.15;4.65;;;;;;;;;;5138956;27;20206;-63
2023/06/16 05:33:32;;;;;;;5.53;5.03;;;;;;;;;;5139150;27;20216;-63
2023/06/16 05:36:00;;;;;;;5.45;4.95;;;;;;;;;;5138510;27;20209;-63
2023/06/16 05:38:27;;;;;;;5.47;4.97;;;;;;;;;;5138858;27;20194;-63
2023/06/16 05:40:55;;;;;;;5.72;5.20;;;;;;;;;;5139099;27;20280;-63
2023/06/16 05:43:24;;;;;;;5.22;4.82;;;;;;;;;;5137672;27;20220;-62
2023/06/16 05:45:52;;;;;;;5.25;4.85;;;;;;;;;;5138307;27;20230;-63
2023/06/16 05:48:19;;;;;;;5.82;5.35;;;;;;;;;;5138465;27;20643;-63
2023/06/16 05:50:47;;;;;;;5.40;5.00;;;;;;;;;;5138113;27;20201;-63
2023/06/16 05:53:15;;;;;;;5.35;4.95;;;;;;;;;;5137557;27;20301;-63
2023/06/16 05:55:42;;;;;;;5.68;5.07;;;;;;;;;;5137503;27;20199;-62
2023/06/16 05:58:09;;;;;;;5.78;5.35;;;;;;;;;;5138340;27;20202;-63
2023/06/16 06:00:38;;;;;;;5.63;5.13;;;;;;;;;;5137842;27;20213;-63
2023/06/16 06:03:05;;;;;;;5.95;5.45;;;;;;;;;;5137891;27;20202;-63
2023/06/16 06:05:33;;;;;;;5.95;5.45;;;;;;;;;;5135895;27;20232;-63
2023/06/16 06:08:00;;;;;;;5.60;5.10;;;;;;;;;;5138545;27;20210;-63
2023/06/16 06:10:28;;;;;;;5.93;5.43;;;;;;;;;;5138156;27;20222;-63
2023/06/16 06:12:55;;;;;;;5.60;5.10;;;;;;;;;;5138429;27;20202;-62
2023/06/16 06:15:22;;;;;;;5.97;5.43;;;;;;;;;;5137623;27;20590;-63
2023/06/16 06:17:51;;;;;;;5.68;5.18;;;;;;;;;;5138103;27;20229;-63
2023/06/16 06:20:18;;;;;;;5.57;5.18;;;;;;;;;;5137824;27;20198;-63
2023/06/16 06:22:46;;;;;;;5.93;5.43;;;;;;;;;;5137912;27;20709;-63
2023/06/16 06:25:13;;;;;;;5.45;4.88;;;;;;;;;;5137550;27;20237;-63
2023/06/16 06:27:41;;;;;;;5.85;5.35;;;;;;;;;;5137714;27;20267;-63
2023/06/16 06:30:09;;;;;;;5.38;4.97;;;;;;;;;;5137836;27;20205;-63
2023/06/16 06:32:37;;;;;;;5.80;5.30;;;;;;;;;;5137798;27;20218;-63
2023/06/16 06:35:06;;;;;;;5.78;5.38;;;;;;;;;;5137428;27;20230;-63
2023/06/16 06:37:33;;;;;;;5.43;5.00;;;;;;;;;;5138425;27;20202;-63
2023/06/16 06:40:01;;;;;;;5.35;4.95;;;;;;;;;;5138201;27;20501;-62
2023/06/16 06:42:28;;;;;;;5.15;4.75;;;;;;;;;;5138743;27;20209;-63
2023/06/16 06:44:55;;;;;;;5.65;5.13;;;;;;;;;;5137396;27;20695;-63
2023/06/16 06:47:23;;;;;;;5.72;5.22;;;;;;;;;;5137087;27;20233;-63
2023/06/16 06:49:50;;;;;;;5.30;4.90;;;;;;;;;;5138062;27;20205;-63
2023/06/16 06:52:19;;;;;;;5.10;4.70;;;;;;;;;;5137393;27;20245;-63
2023/06/16 06:54:46;;;;;;;5.80;5.30;;;;;;;;;;5137050;27;20213;-63
2023/06/16 06:57:15;;;;;;;5.72;5.32;;;;;;;;;;5137270;27;20236;-63
2023/06/16 06:59:43;;;;;;;5.53;5.03;;;;;;;;;;5137641;27;20231;-63
2023/06/16 07:02:10;;;;;;;5.70;5.20;;;;;;;;;;5137423;27;20201;-63
2023/06/16 07:04:38;;;;;;;5.03;4.63;;;;;;;;;;5136385;27;20199;-63
2023/06/16 07:07:07;;;;;;;4.75;4.25;;;;;;;;;;5137366;27;20305;-63
2023/06/16 07:09:36;;;;;;;5.95;5.45;;;;;;;;;;5136943;27;20305;-63
2023/06/16 07:12:04;;;;;;;5.50;5.05;;;;;;;;;;5137051;27;20203;-63
2023/06/16 07:14:31;;;;;;;5.10;4.70;;;;;;;;;;5136655;27;20217;-63
2023/06/16 07:17:00;;;;;;;5.00;4.63;;;;;;;;;;5135488;27;20503;-63
2023/06/16 07:19:28;;;;;;;5.47;5.07;;;;;;;;;;5137023;27;20198;-63
2023/06/16 07:21:56;;;;;;;5.20;4.80;;;;;;;;;;5134905;27;20210;-63
2023/06/16 07:24:25;;;;;;;6.03;5.53;;;;;;;;;;5136741;27;20221;-63
2023/06/16 07:26:54;;;;;;;5.30;4.90;;;;;;;;;;5136724;27;20253;-63
2023/06/16 07:29:22;;;;;;;5.70;5.13;;;;;;;;;;5136025;27;20198;-63
2023/06/16 07:31:49;;;;;;;5.50;5.00;;;;;;;;;;5136868;27;20210;-63
2023/06/16 07:34:17;;;;;;;4.88;4.47;;;;;;;;;;5136084;27;20589;-63
2023/06/16 07:36:46;;;;;;;5.30;4.75;;;;;;;;;;5136627;27;20259;-63
2023/06/16 07:39:14;;;;;;;5.05;4.65;;;;;;;;;;5137211;27;20209;-63
2023/06/16 07:41:41;;;;;;;5.47;5.05;;;;;;;;;;5136852;27;20213;-63
2023/06/16 07:44:10;;;;;;;5.45;5.05;;;;;;;;;;5137074;27;20194;-63
2023/06/16 07:46:39;;;;;;;5.30;4.90;;;;;;;;;;5147146;27;20608;-63
2023/06/16 07:49:07;;;;;;;5.18;4.75;;;;;;;;;;5157211;27;20201;-63
2023/06/16 07:51:34;;;;;;;5.82;5.22;;;;;;;;;;5157385;27;20201;-63
2023/06/16 07:54:02;;;;;;;5.30;4.80;;;;;;;;;;5157947;27;20657;-63
2023/06/16 07:56:30;;;;;;;5.82;5.25;;;;;;;;;;5156860;27;20206;-63
2023/06/16 07:58:57;;;;;;;5.18;4.78;;;;;;;;;;5157332;27;20212;-63
2023/06/16 08:01:26;;;;;;;5.28;4.53;;;;;;;;;;5156857;27;20300;-63
2023/06/16 08:03:54;;;;;;;4.63;4.22;;;;;;;;;;5156341;27;20208;-63
2023/06/16 08:06:22;;;;;;;4.97;4.57;;;;;;;;;;5156719;27;20214;-63
2023/06/16 08:08:50;;;;;;;4.85;4.45;;;;;;;;;;5157056;27;20206;-63
2023/06/16 08:11:17;;;;;;;4.78;4.38;;;;;;;;;;5156753;27;20292;-64
2023/06/16 08:13:45;;;;;;;5.18;4.78;;;;;;;;;;5156971;27;20216;-63
2023/06/16 08:16:12;;;;;;;4.88;4.43;;;;;;;;;;5156494;27;20212;-63
2023/06/16 08:18:41;;;;;;;5.32;4.80;;;;;;;;;;5156861;27;20198;-63
2023/06/16 08:21:08;;;;;;;4.90;4.50;;;;;;;;;;5156231;27;20243;-63
2023/06/16 08:23:36;;;;;;;4.10;3.80;;;;;;;;;;5156803;27;20197;-63
2023/06/16 08:26:04;;;;;;;4.88;4.47;;;;;;;;;;5156836;27;20236;-63
2023/06/16 08:28:32;;;;;;;4.90;4.50;;;;;;;;;;5159837;27;20261;-63
2023/06/16 08:31:00;;;;;;;4.85;4.45;;;;;;;;;;5160577;27;20270;-63
2023/06/16 08:33:27;;;;;;;4.80;4.40;;;;;;;;;;5161525;27;20198;-63
2023/06/16 08:35:57;;;;;;;5.05;4.65;;;;;;;;;;5160954;27;20197;-63
2023/06/16 08:38:24;;;;;;;4.72;4.32;;;;;;;;;;5160432;27;20240;-63
2023/06/16 08:40:51;;;;;;;5.03;4.63;;;;;;;;;;5160614;27;20212;-63
2023/06/16 08:43:19;;;;;;;4.88;4.47;;;;;;;;;;5159555;27;20193;-63
2023/06/16 08:45:47;;;;;;;5.18;4.75;;;;;;;;;;5160107;27;20222;-63
2023/06/16 08:48:15;;;;;;;4.80;4.40;;;;;;;;;;5160693;27;20763;-63
2023/06/16 08:50:44;;;;;;;4.40;4.10;;;;;;;;;;5160497;27;20265;-63
2023/06/16 08:53:13;;;;;;;5.03;4.53;;;;;;;;;;5159805;27;20611;-63
2023/06/16 08:55:42;;;;;;;4.95;4.55;;;;;;;;;;5161067;27;20197;-63
2023/06/16 08:58:11;;;;;;;4.75;4.35;;;;;;;;;;5160460;27;20645;-63
2023/06/16 09:00:39;;;;;;;4.97;4.57;;;;;;;;;;5160592;27;20210;-63
2023/06/16 09:03:08;;;;;;;4.80;4.40;;;;;;;;;;5160577;27;20197;-63
2023/06/16 09:05:36;;;;;;;5.93;4.80;;;;;;;;;;5159820;27;20225;-63
2023/06/16 09:08:05;;;;;;;5.60;5.10;;;;;;;;;;5160166;27;20609;-63
2023/06/16 09:10:34;;;;;;;5.10;4.60;;;;;;;;;;5160710;27;20471;-63
2023/06/16 09:13:02;;;;;;;5.15;4.75;;;;;;;;;;5160146;27;20522;-63
2023/06/16 09:15:33;;;;;;;4.68;4.35;;;;;;;;;;5159301;27;20202;-63
2023/06/16 09:18:06;;;;;;;4.78;4.45;;;;;;;;;;5160065;27;20576;-63
2023/06/16 09:20:33;;;;;;;4.65;4.28;;;;;;;;;;5160135;27;20297;-63
2023/06/16 09:23:04;;;;;;;4.72;4.32;;;;;;;;;;5159628;27;20225;-63
2023/06/16 09:25:34;;;;;;;4.97;4.57;;;;;;;;;;5159810;27;20230;-63
2023/06/16 09:28:07;;;;;;;4.93;4.53;;;;;;;;;;5159775;27;20206;-63
2023/06/16 09:30:35;;;;;;;4.53;4.22;;;;;;;;;;5158377;27;20202;-63
2023/06/16 09:33:02;;;;;;;4.82;4.30;;;;;;;;;;5159570;27;20529;-63
2023/06/16 09:35:30;;;;;;;5.03;4.60;;;;;;;;;;5118064;27;20285;-62
2023/06/16 09:37:59;;;;;;;5.00;4.32;;;;;;;;;;5118468;28;20203;-63
2023/06/16 09:40:27;;;;;;;5.22;4.53;;;;;;;;;;5116971;28;20203;-62
2023/06/16 09:42:58;;;;;;;4.90;4.40;;;;;;;;;;5118278;28;20534;-63
2023/06/16 09:45:29;;;;;;;4.60;4.20;;;;;;;;;;5123504;27;20285;-63
2023/06/16 09:47:57;;;;;;;4.75;4.20;;;;;;;;;;5117046;28;20191;-62
2023/06/16 09:50:26;;;;;;;4.50;4.18;;;;;;;;;;5116940;28;20267;-62
2023/06/16 09:52:55;;;;;;;4.50;4.15;;;;;;;;;;5117842;28;20213;-62
2023/06/16 09:55:26;;;;;;;4.18;3.88;;;;;;;;;;5117029;28;20209;-63
2023/06/16 09:57:53;;;;;;;4.43;3.85;;;;;;;;;;5117603;28;20737;-63
2023/06/16 10:00:25;;;;;;;4.53;4.22;;;;;;;;;;5117265;28;20590;-63
2023/06/16 10:02:52;;;;;;;5.28;4.38;;;;;;;;;;5117570;28;20282;-63
2023/06/16 10:05:21;;;;;;;4.78;4.38;;;;;;;;;;5117355;28;20268;-63
2023/06/16 10:07:49;;;;;;;4.95;4.38;;;;;;;;;;5117222;28;20381;-63
2023/06/16 10:10:22;;;;;;;4.90;4.50;;;;;;;;;;5116770;28;20206;-63
2023/06/16 10:12:50;;;;;;;5.20;4.68;;;;;;;;;;5116152;28;20297;-62
2023/06/16 10:15:20;;;;;;;4.85;4.25;;;;;;;;;;5117201;28;20625;-63
2023/06/16 10:17:50;;;;;;;4.72;4.32;;;;;;;;;;5117227;28;20198;-63
2023/06/16 10:20:20;;;;;;;4.75;4.32;;;;;;;;;;5117409;28;20690;-63
2023/06/16 10:22:48;;;;;;;5.03;4.53;;;;;;;;;;5116755;28;20195;-63
2023/06/16 10:25:16;;;;;;;4.80;4.40;;;;;;;;;;5117010;28;20291;-63
2023/06/16 10:27:43;;;;;;;5.28;4.60;;;;;;;;;;5116308;28;20234;-62
2023/06/16 10:30:16;;;;;;;4.70;4.30;;;;;;;;;;5116634;28;20202;-62
2023/06/16 10:32:43;;;;;;;4.80;4.40;;;;;;;;;;5117118;28;20684;-62
2023/06/16 10:35:14;;;;;;;5.32;4.82;;;;;;;;;;5116322;28;20214;-62
2023/06/16 10:37:41;;;;;;;4.78;4.38;;;;;;;;;;5116549;28;20289;-63
2023/06/16 10:40:12;;;;;;;5.07;4.55;;;;;;;;;;5116115;28;20203;-63
2023/06/16 10:42:41;;;;;;;4.95;4.50;;;;;;;;;;5115937;28;20267;-63
2023/06/16 10:45:25;;;;;;;4.75;4.35;;;;;;;;;;5115468;28;20222;-62
2023/06/16 10:47:56;;;;;;;4.93;4.53;;;;;;;;;;5136126;27;20260;-62
2023/06/16 10:50:32;;;;;;;4.43;4.03;;;;;;;;;;5136411;27;20577;-62
2023/06/16 10:53:09;;;;;;;4.22;3.92;;;;;;;;;;5136601;27;20217;-62
2023/06/16 10:55:38;;;;;;;5.20;4.43;;;;;;;;;;5137485;27;20206;-62
2023/06/16 10:58:36;;;;;;;4.35;4.03;;;;;;;;;;5135751;27;20284;-62
2023/06/16 11:01:06;;;;;;;4.80;4.30;;;;;;;;;;5032770;28;20202;-62
2023/06/16 11:03:37;;;;;;;4.18;3.88;;;;;;;;;;5114072;27;20194;-63
2023/06/16 11:06:06;;;;;;;4.05;3.75;;;;;;;;;;5136512;27;20670;-63
2023/06/16 11:08:49;;;;;;;4.20;3.88;;;;;;;;;;5136190;27;20259;-63
2023/06/16 11:11:17;;;;;;;4.35;4.05;;;;;;;;;;5136034;27;20233;-63
2023/06/16 11:13:45;;;;;;;3.90;3.60;;;;;;;;;;5136959;27;20209;-63
2023/06/16 11:16:12;;;;;;;4.65;3.67;;;;;;;;;;5136077;27;20302;-63
2023/06/16 11:18:39;;;;;;;3.80;3.50;;;;;;;;;;5135631;27;20631;-63
2023/06/16 11:21:10;;;;;;;4.13;3.83;;;;;;;;;;5136163;27;20298;-63
2023/06/16 11:23:37;;;;;;;3.83;3.53;;;;;;;;;;5137463;27;20221;-63
2023/06/16 11:26:06;;;;;;;4.10;3.80;;;;;;;;;;5137654;27;20210;-63
2023/06/16 11:28:33;;;;;;;4.43;4.03;;;;;;;;;;5135941;27;20402;-62
2023/06/16 11:31:02;;;;;;;3.67;3.38;;;;;;;;;;5136397;27;20202;-62
2023/06/16 11:33:29;;;;;;;3.55;3.25;;;;;;;;;;5134798;27;20233;-62
2023/06/16 11:35:57;;;;;;;3.75;3.45;;;;;;;;;;5135849;27;20233;-62
2023/06/16 11:38:26;;;;;;;3.30;3.00;;;;;;;;;;5136892;27;20194;-62
2023/06/16 11:40:54;;;;;;;3.33;3.13;;;;;;;;;;5135906;27;20213;-62
2023/06/16 11:43:24;;;;;;;3.03;2.80;;;;;;;;;;5137138;27;20305;-63
2023/06/16 11:45:52;;;;;;;3.30;3.00;;;;;;;;;;5135977;27;20261;-63
2023/06/16 11:48:20;;;;;;;3.10;2.90;;;;;;;;;;5136468;27;20496;-62
2023/06/16 11:50:47;;;;;;;2.80;2.60;;;;;;;;;;5135552;27;20653;-63
2023/06/16 11:53:15;;;;;;;2.95;2.75;;;;;;;;;;5135989;27;20213;-63
2023/06/16 11:55:49;;;;;;;3.00;2.80;;;;;;;;;;5136265;27;20202;-63
2023/06/16 11:58:16;;;;;;;2.83;2.63;;;;;;;;;;5135753;27;20588;-63
2023/06/16 12:00:44;;;;;;;2.80;2.60;;;;;;;;;;5136066;27;20202;-63
2023/06/16 12:03:12;;;;;;;3.75;2.63;;;;;;;;;;5134648;27;20489;-63
2023/06/16 12:05:41;;;;;;;2.78;2.58;;;;;;;;;;5134099;27;20208;-62
2023/06/16 12:08:09;;;;;;;2.65;2.45;;;;;;;;;;5135535;27;20269;-62
2023/06/16 12:10:36;;;;;;;2.45;2.25;;;;;;;;;;5135556;27;20502;-62
2023/06/16 12:13:09;;;;;;;2.30;2.10;;;;;;;;;;5135438;27;20259;-62
2023/06/16 12:15:36;;;;;;;2.20;2.10;;;;;;;;;;5135538;28;20230;-62
2023/06/16 12:18:04;;;;;;;2.85;2.42;;;;;;;;;;5135140;27;20202;-63
2023/06/16 12:20:31;;;;;;;2.17;2.08;;;;;;;;;;5134944;27;20198;-63
2023/06/16 12:22:58;;;;;;;2.10;2.00;;;;;;;;;;5135361;27;20202;-63
2023/06/16 12:25:26;;;;;;;2.00;1.90;;;;;;;;;;5134443;28;20202;-63
2023/06/16 12:27:58;;;;;;;2.42;1.90;;;;;;;;;;5134228;27;20229;-63
2023/06/16 12:30:34;;;;;;;1.88;1.77;;;;;;;;;;5134404;28;20202;-63
2023/06/16 12:33:09;;;;;;;2.55;2.15;;;;;;;;;;5144757;27;20466;-63
2023/06/16 12:35:37;;;;;;;2.15;1.95;;;;;;;;;;5154256;27;20577;-63
2023/06/16 12:38:04;;;;;;;2.05;1.95;;;;;;;;;;5154848;27;20206;-63
2023/06/16 12:40:32;;;;;;;2.10;2.00;;;;;;;;;;5154664;27;20577;-63
2023/06/16 12:43:14;;;;;;;1.98;1.88;;;;;;;;;;5154930;27;20202;-63
2023/06/16 12:45:44;;;;;;;2.17;1.90;;;;;;;;;;5154001;27;20244;-63
2023/06/16 12:48:11;;;;;;;2.13;1.92;;;;;;;;;;5154984;27;20217;-63
2023/06/16 12:50:38;;;;;;;2.20;2.00;;;;;;;;;;5155513;27;20201;-63
2023/06/16 12:53:06;;;;;;;2.30;2.17;;;;;;;;;;5154911;27;20244;-62
2023/06/16 12:55:33;;;;;;;1.90;1.80;;;;;;;;;;5153901;27;20552;-62
2023/06/16 12:58:01;;;;;;;1.80;1.70;;;;;;;;;;5154902;27;20198;-65
2023/06/16 13:00:28;;;;;;;2.10;2.00;;;;;;;;;;5154587;27;20194;-63
2023/06/16 13:02:57;;;;;;;2.10;2.00;;;;;;;;;;5154720;27;20209;-63
2023/06/16 13:05:25;;;;;;;2.10;1.90;;;;;;;;;;5154709;27;20213;-63
2023/06/16 13:07:53;;;;;;;2.33;2.13;;;;;;;;;;5154802;27;20232;-63
2023/06/16 13:10:20;;;;;;;2.10;2.00;;;;;;;;;;5155391;27;20219;-63
2023/06/16 13:12:48;;;;;;;1.90;1.80;;;;;;;;;;5155214;27;20679;-63
2023/06/16 13:15:15;;;;;;;2.00;1.90;;;;;;;;;;5158698;27;20198;-63
2023/06/16 13:17:43;;;;;;;2.03;1.92;;;;;;;;;;5158568;27;20240;-62
2023/06/16 13:20:12;;;;;;;2.53;2.28;;;;;;;;;;5157449;27;20197;-62
2023/06/16 13:22:40;;;;;;;2.15;2.05;;;;;;;;;;5159308;27;20209;-62
2023/06/16 13:25:08;;;;;;;1.90;1.80;;;;;;;;;;5159472;27;20215;-62
2023/06/16 13:27:35;;;;;;;2.00;1.90;;;;;;;;;;5158136;27;20225;-62
2023/06/16 13:30:02;;;;;;;2.10;2.00;;;;;;;;;;5158628;27;20209;-62
2023/06/16 13:32:30;;;;;;;2.50;2.00;;;;;;;;;;5159463;27;20193;-63
2023/06/16 13:34:57;;;;;;;2.15;2.05;;;;;;;;;;5158383;27;20198;-63
2023/06/16 13:37:26;;;;;;;2.55;2.35;;;;;;;;;;5158596;27;20201;-63
2023/06/16 13:39:54;;;;;;;2.40;2.20;;;;;;;;;;5158899;27;20321;-63
2023/06/16 13:42:21;;;;;;;2.30;2.20;;;;;;;;;;5158832;27;20205;-63
2023/06/16 13:44:48;;;;;;;2.33;2.13;;;;;;;;;;5159196;27;20276;-63
2023/06/16 13:47:17;;;;;;;2.35;2.15;;;;;;;;;;5158412;27;20252;-63
2023/06/16 13:49:45;;;;;;;2.30;2.20;;;;;;;;;;5158211;27;20292;-63
2023/06/16 13:52:12;;;;;;;2.40;2.20;;;;;;;;;;5157838;27;20197;-63
2023/06/16 13:54:41;;;;;;;2.20;2.10;;;;;;;;;;5158491;27;20600;-63
2023/06/16 13:57:08;;;;;;;2.30;2.10;;;;;;;;;;5158305;27;20722;-62
2023/06/16 13:59:36;;;;;;;2.00;1.90;;;;;;;;;;5158105;27;20201;-62
2023/06/16 14:02:03;;;;;;;2.20;2.10;;;;;;;;;;5157301;27;20201;-62
2023/06/16 14:04:31;;;;;;;2.15;1.95;;;;;;;;;;5156920;27;20750;-63
2023/06/16 14:06:58;;;;;;;2.50;2.30;;;;;;;;;;5157753;27;20762;-63
2023/06/16 14:09:25;;;;;;;2.17;1.92;;;;;;;;;;5158299;27;20193;-63
2023/06/16 14:11:54;;;;;;;2.70;2.50;;;;;;;;;;5158210;27;20496;-63
2023/06/16 14:14:22;;;;;;;2.80;2.30;;;;;;;;;;5157838;27;20209;-63
2023/06/16 14:16:50;;;;;;;2.40;2.20;;;;;;;;;;5157907;27;20257;-63
2023/06/16 14:19:18;;;;;;;2.60;2.40;;;;;;;;;;5158296;27;20228;-63
2023/06/16 14:21:45;;;;;;;2.50;2.30;;;;;;;;;;5157435;27;20213;-62
2023/06/16 14:24:12;;;;;;;2.67;2.47;;;;;;;;;;5157884;27;20212;-62
2023/06/16 14:26:40;;;;;;;2.50;2.30;;;;;;;;;;5157290;27;20197;-62
2023/06/16 14:29:08;;;;;;;2.60;2.40;;;;;;;;;;5157188;27;20221;-63
2023/06/16 14:31:36;;;;;;;2.90;2.70;;;;;;;;;;5158107;27;20209;-63
2023/06/16 14:34:03;;;;;;;4.07;2.40;;;;;;;;;;5156946;27;20623;-63
2023/06/16 14:36:31;;;;;;;2.78;2.58;;;;;;;;;;5157866;27;20201;-63
2023/06/16 14:38:58;;;;;;;2.90;2.70;;;;;;;;;;5156851;27;20662;-63
2023/06/16 14:41:26;;;;;;;2.60;2.40;;;;;;;;;;5158059;27;20206;-63
2023/06/16 14:43:53;;;;;;;3.20;3.00;;;;;;;;;;5157657;27;20202;-63
2023/06/16 14:46:22;;;;;;;3.10;2.80;;;;;;;;;;5157531;27;20244;-63
2023/06/16 14:48:49;;;;;;;3.13;2.92;;;;;;;;;;5157215;27;20228;-62
2023/06/16 14:51:16;;;;;;;2.88;2.67;;;;;;;;;;5158392;27;20205;-62